createdAt,value
2017-07-10T00:01:22.522Z,3.23
2017-07-10T00:03:52.047Z,3.27
2017-07-10T00:06:21.800Z,2.70
2017-07-10T00:08:51.911Z,2.60
2017-07-10T00:11:21.703Z,2.80
2017-07-10T00:13:51.208Z,3.17
2017-07-10T00:16:20.690Z,3.33
2017-07-10T00:18:51.039Z,3.33
2017-07-10T00:21:20.559Z,2.80
2017-07-10T00:23:50.465Z,2.90
2017-07-10T00:26:19.988Z,2.97
2017-07-10T00:28:49.490Z,3.43
2017-07-10T00:31:19.099Z,3.40
2017-07-10T00:33:48.602Z,3.00
2017-07-10T00:36:18.425Z,3.33
2017-07-10T00:38:47.938Z,3.50
2017-07-10T00:41:17.468Z,3.73
2017-07-10T00:43:46.958Z,4.30
2017-07-10T00:46:16.481Z,4.27
2017-07-10T00:48:46.241Z,3.33
2017-07-10T00:51:15.755Z,3.90
2017-07-10T00:53:45.655Z,3.43
2017-07-10T00:56:15.433Z,3.03
2017-07-10T00:58:44.927Z,3.80
2017-07-10T01:01:14.767Z,3.20
2017-07-10T01:03:44.263Z,3.20
2017-07-10T01:06:13.761Z,3.77
2017-07-10T01:08:43.281Z,3.50
2017-07-10T01:11:12.776Z,3.80
2017-07-10T01:13:42.611Z,3.50
2017-07-10T01:16:12.729Z,4.00
2017-07-10T01:18:42.233Z,2.80
2017-07-10T01:21:11.738Z,3.13
2017-07-10T01:23:41.264Z,3.00
2017-07-10T01:26:11.071Z,3.10
2017-07-10T01:28:40.585Z,3.60
2017-07-10T01:31:10.929Z,4.10
2017-07-10T01:33:40.523Z,3.00
2017-07-10T01:36:10.047Z,4.00
2017-07-10T01:38:39.659Z,3.50
2017-07-10T01:41:09.147Z,3.50
2017-07-10T01:43:38.667Z,3.70
2017-07-10T01:46:08.280Z,3.20
2017-07-10T01:48:38.195Z,4.20
2017-07-10T01:51:08.022Z,3.70
2017-07-10T01:53:38.269Z,3.70
2017-07-10T01:56:08.567Z,4.20
2017-07-10T01:58:38.079Z,4.17
2017-07-10T02:01:07.573Z,3.17
2017-07-10T02:03:37.084Z,3.37
2017-07-10T02:06:06.591Z,3.40
2017-07-10T02:08:36.368Z,3.27
2017-07-10T02:11:06.778Z,3.60
2017-07-10T02:13:36.550Z,4.20
2017-07-10T02:16:06.076Z,3.87
2017-07-10T02:18:35.598Z,3.97
2017-07-10T02:21:05.182Z,3.80
2017-07-10T02:23:34.671Z,4.47
2017-07-10T02:26:04.618Z,4.10
2017-07-10T02:28:34.122Z,4.40
2017-07-10T02:31:03.642Z,3.63
2017-07-10T02:33:33.261Z,4.20
2017-07-10T02:36:03.074Z,3.57
2017-07-10T02:38:32.879Z,3.27
2017-07-10T02:41:02.396Z,4.37
2017-07-10T02:43:32.310Z,4.73
2017-07-10T02:46:01.832Z,3.43
2017-07-10T02:48:31.327Z,3.30
2017-07-10T02:51:01.089Z,3.40
2017-07-10T02:53:31.090Z,3.67
2017-07-10T02:56:01.218Z,4.57
2017-07-10T02:58:31.244Z,3.87
2017-07-10T03:01:01.554Z,4.40
2017-07-10T03:03:31.569Z,3.67
2017-07-10T03:06:01.329Z,3.67
2017-07-10T03:08:30.835Z,3.97
2017-07-10T03:11:01.106Z,4.67
2017-07-10T03:13:30.612Z,4.63
2017-07-10T03:16:00.127Z,4.57
2017-07-10T03:18:29.755Z,4.17
2017-07-10T03:20:59.257Z,3.60
2017-07-10T03:23:29.064Z,3.73
2017-07-10T03:25:58.578Z,5.03
2017-07-10T03:28:28.209Z,5.07
2017-07-10T03:30:57.814Z,4.37
2017-07-10T03:33:27.298Z,4.00
2017-07-10T03:35:57.120Z,4.00
2017-07-10T03:38:26.623Z,4.13
2017-07-10T03:40:56.132Z,4.03
2017-07-10T03:43:25.645Z,3.87
2017-07-10T03:45:55.149Z,4.20
2017-07-10T03:48:24.977Z,4.40
2017-07-10T03:50:54.492Z,4.20
2017-07-10T03:53:24.728Z,4.33
2017-07-10T03:55:54.235Z,4.00
2017-07-10T03:58:23.849Z,3.93
2017-07-10T04:00:54.021Z,3.87
2017-07-10T04:03:23.850Z,4.00
2017-07-10T04:05:52.160Z,3.40
2017-07-10T04:08:21.273Z,3.40
2017-07-10T04:10:49.631Z,4.37
2017-07-10T04:13:18.194Z,3.93
2017-07-10T04:15:46.445Z,3.47
2017-07-10T04:18:15.507Z,4.20
2017-07-10T04:20:43.799Z,3.80
2017-07-10T04:23:13.315Z,3.43
2017-07-10T04:25:41.913Z,4.23
2017-07-10T04:28:10.558Z,3.67
2017-07-10T04:30:38.859Z,3.87
2017-07-10T04:33:07.234Z,3.33
2017-07-10T04:35:35.538Z,4.27
2017-07-10T04:38:04.160Z,3.70
2017-07-10T04:40:33.601Z,3.77
2017-07-10T04:43:01.925Z,3.30
2017-07-10T04:45:30.743Z,3.00
2017-07-10T04:47:59.053Z,4.00
2017-07-10T04:50:27.635Z,3.50
2017-07-10T04:52:55.995Z,2.87
2017-07-10T04:55:25.471Z,4.20
2017-07-10T04:57:54.233Z,3.73
2017-07-10T05:00:23.551Z,3.60
2017-07-10T05:02:52.160Z,3.50
2017-07-10T05:05:20.428Z,3.50
2017-07-10T05:07:48.746Z,4.10
2017-07-10T05:10:18.137Z,3.23
2017-07-10T05:12:46.533Z,3.83
2017-07-10T05:15:15.182Z,3.50
2017-07-10T05:17:43.592Z,3.70
2017-07-10T05:20:11.872Z,3.37
2017-07-10T05:22:40.269Z,4.13
2017-07-10T05:25:08.742Z,3.50
2017-07-10T05:27:37.138Z,3.87
2017-07-10T05:30:05.792Z,3.77
2017-07-10T05:32:34.100Z,3.00
2017-07-10T05:35:02.459Z,4.03
2017-07-10T05:37:30.843Z,3.97
2017-07-10T05:39:59.741Z,4.20
2017-07-10T05:42:28.508Z,10.30
2017-07-10T05:44:56.984Z,4.03
2017-07-10T05:47:25.290Z,4.70
2017-07-10T05:49:54.202Z,4.80
2017-07-10T05:52:22.520Z,5.30
2017-07-10T05:54:51.927Z,3.90
2017-07-10T05:57:20.995Z,3.83
2017-07-10T05:59:49.267Z,3.60
2017-07-10T06:02:17.596Z,3.10
2017-07-10T06:04:45.856Z,3.30
2017-07-10T06:07:14.510Z,4.20
2017-07-10T06:09:43.326Z,3.77
2017-07-10T06:12:11.613Z,4.33
2017-07-10T06:14:39.885Z,3.57
2017-07-10T06:17:09.497Z,3.37
2017-07-10T06:19:39.416Z,3.40
2017-07-10T06:22:08.207Z,3.80
2017-07-10T06:24:36.999Z,3.93
2017-07-10T06:27:05.266Z,3.73
2017-07-10T06:29:33.549Z,3.93
2017-07-10T06:32:02.132Z,4.40
2017-07-10T06:34:30.401Z,3.43
2017-07-10T06:36:58.677Z,4.83
2017-07-10T06:39:27.104Z,5.47
2017-07-10T06:41:55.387Z,4.03
2017-07-10T06:44:23.950Z,3.83
2017-07-10T06:46:52.623Z,3.73
2017-07-10T06:49:21.659Z,4.30
2017-07-10T06:51:50.419Z,3.87
2017-07-10T06:54:20.147Z,5.20
2017-07-10T06:56:48.746Z,4.45
2017-07-10T06:59:17.138Z,4.63
2017-07-10T07:01:45.600Z,5.90
2017-07-10T07:04:14.030Z,4.07
2017-07-10T07:06:42.401Z,4.87
2017-07-10T07:09:11.201Z,5.10
2017-07-10T07:11:39.544Z,11.40
2017-07-10T07:14:07.929Z,5.70
2017-07-10T07:16:36.312Z,5.10
2017-07-10T07:19:04.575Z,4.73
2017-07-10T07:21:33.161Z,4.50
2017-07-10T07:24:01.457Z,4.90
2017-07-10T07:26:29.750Z,5.23
2017-07-10T07:28:58.037Z,5.00
2017-07-10T07:31:26.367Z,5.43
2017-07-10T07:33:55.742Z,4.47
2017-07-10T07:36:24.311Z,4.53
2017-07-10T07:38:52.581Z,5.93
2017-07-10T07:41:21.309Z,5.20
2017-07-10T07:43:50.688Z,4.50
2017-07-10T07:46:19.840Z,5.53
2017-07-10T07:48:49.620Z,4.97
2017-07-10T07:51:17.902Z,5.20
2017-07-10T07:53:46.164Z,5.50
2017-07-10T07:56:14.569Z,5.63
2017-07-10T07:58:43.100Z,6.30
2017-07-10T08:01:11.912Z,4.90
2017-07-10T08:03:40.225Z,5.47
2017-07-10T08:06:08.538Z,4.87
2017-07-10T08:08:37.582Z,4.97
2017-07-10T08:11:06.208Z,5.47
2017-07-10T08:13:35.524Z,5.83
2017-07-10T08:16:04.577Z,5.93
2017-07-10T08:18:33.617Z,6.50
2017-07-10T08:21:02.056Z,5.80
2017-07-10T08:23:30.611Z,5.60
2017-07-10T08:26:00.231Z,6.70
2017-07-10T08:28:29.199Z,6.37
2017-07-10T08:30:58.389Z,6.43
2017-07-10T08:33:26.668Z,5.97
2017-07-10T08:35:55.272Z,12.67
2017-07-10T08:38:23.626Z,14.03
2017-07-10T08:40:51.928Z,9.20
2017-07-10T08:43:20.261Z,7.33
2017-07-10T08:45:48.579Z,9.10
2017-07-10T08:48:17.169Z,9.10
2017-07-10T08:50:45.476Z,8.33
2017-07-10T08:53:14.546Z,8.77
2017-07-10T08:55:42.947Z,8.60
2017-07-10T08:58:13.425Z,10.60
2017-07-10T09:00:42.075Z,10.60
2017-07-10T09:03:10.378Z,12.23
2017-07-10T09:05:38.694Z,10.77
2017-07-10T09:08:07.190Z,11.53
2017-07-10T09:10:35.571Z,13.33
2017-07-10T09:13:04.170Z,12.80
2017-07-10T09:15:32.476Z,10.83
2017-07-10T09:18:01.533Z,16.63
2017-07-10T09:20:29.876Z,15.57
2017-07-10T09:22:58.955Z,15.30
2017-07-10T09:25:27.528Z,16.83
2017-07-10T09:27:55.900Z,17.83
2017-07-10T09:30:24.229Z,27.47
2017-07-10T09:32:52.507Z,22.63
2017-07-10T09:35:21.585Z,18.63
2017-07-10T09:37:50.847Z,21.27
2017-07-10T09:40:19.146Z,19.17
2017-07-10T09:42:47.448Z,21.17
2017-07-10T09:45:16.334Z,20.83
2017-07-10T09:47:45.891Z,20.37
2017-07-10T09:50:15.295Z,18.00
2017-07-10T09:52:44.362Z,16.17
2017-07-10T09:55:12.919Z,16.60
2017-07-10T09:57:41.359Z,16.30
2017-07-10T10:00:09.608Z,18.20
2017-07-10T10:02:38.175Z,17.97
2017-07-10T10:05:06.441Z,17.63
2017-07-10T10:07:35.137Z,16.10
2017-07-10T10:10:03.440Z,16.47
2017-07-10T10:12:31.853Z,14.40
2017-07-10T10:15:00.521Z,16.70
2017-07-10T10:17:29.258Z,17.20
2017-07-10T10:19:57.898Z,16.20
2017-07-10T10:22:26.635Z,17.30
2017-07-10T10:24:55.712Z,18.43
2017-07-10T10:27:24.371Z,18.83
2017-07-10T10:29:52.758Z,18.63
2017-07-10T10:32:21.099Z,20.53
2017-07-10T10:34:50.245Z,17.07
2017-07-10T10:37:18.520Z,17.53
2017-07-10T10:39:47.111Z,17.73
2017-07-10T10:42:15.510Z,18.10
2017-07-10T10:44:44.038Z,16.20
2017-07-10T10:47:12.403Z,17.83
2017-07-10T10:49:41.582Z,17.30
2017-07-10T10:52:10.154Z,17.60
2017-07-10T10:54:38.562Z,18.40
2017-07-10T10:57:06.853Z,21.00
2017-07-10T10:59:36.017Z,18.85
2017-07-10T11:02:04.298Z,17.03
2017-07-10T11:04:32.887Z,13.57
2017-07-10T11:07:01.170Z,15.97
2017-07-10T11:09:29.593Z,15.20
2017-07-10T11:11:58.035Z,16.43
2017-07-10T11:14:26.336Z,16.73
2017-07-10T11:16:54.999Z,15.33
2017-07-10T11:19:23.421Z,15.23
2017-07-10T11:21:51.932Z,13.67
2017-07-10T11:24:20.212Z,14.00
2017-07-10T11:26:49.367Z,13.13
2017-07-10T11:29:17.952Z,13.40
2017-07-10T11:31:46.339Z,15.33
2017-07-10T11:34:15.577Z,13.97
2017-07-10T11:36:43.952Z,14.07
2017-07-10T11:39:12.849Z,16.07
2017-07-10T11:41:41.566Z,16.37
2017-07-10T11:44:09.914Z,15.70
2017-07-10T11:46:38.329Z,16.23
2017-07-10T11:49:08.319Z,15.37
2017-07-10T11:51:37.491Z,15.57
2017-07-10T11:54:06.113Z,15.83
2017-07-10T11:56:35.036Z,15.50
2017-07-10T11:59:04.970Z,15.40
2017-07-10T12:01:34.050Z,17.30
2017-07-10T12:04:03.127Z,16.33
2017-07-10T12:06:31.705Z,17.30
2017-07-10T12:08:59.997Z,18.63
2017-07-10T12:11:28.329Z,19.00
2017-07-10T12:13:58.204Z,24.17
2017-07-10T12:16:27.296Z,20.87
2017-07-10T12:18:56.025Z,22.37
2017-07-10T12:21:25.111Z,24.40
2017-07-10T12:23:54.186Z,24.73
2017-07-10T12:26:23.813Z,23.97
2017-07-10T12:28:52.983Z,21.80
2017-07-10T12:31:21.619Z,22.87
2017-07-10T12:33:49.959Z,22.60
2017-07-10T12:36:18.230Z,26.40
2017-07-10T12:38:47.147Z,22.90
2017-07-10T12:41:16.242Z,25.57
2017-07-10T12:43:45.351Z,31.40
2017-07-10T12:46:13.677Z,31.23
2017-07-10T12:48:42.000Z,33.70
2017-07-10T12:51:10.306Z,32.80
2017-07-10T12:53:39.504Z,34.60
2017-07-10T12:56:08.168Z,30.40
2017-07-10T12:58:36.512Z,28.00
2017-07-10T13:01:04.803Z,27.70
2017-07-10T13:03:33.149Z,24.83
2017-07-10T13:06:01.454Z,24.50
2017-07-10T13:08:30.037Z,26.33
2017-07-10T13:10:58.376Z,25.37
2017-07-10T13:13:26.653Z,23.47
2017-07-10T13:15:54.949Z,26.00
2017-07-10T13:18:23.359Z,27.07
2017-07-10T13:20:51.943Z,28.03
2017-07-10T13:23:21.027Z,27.87
2017-07-10T13:25:49.734Z,28.90
2017-07-10T13:28:18.810Z,26.00
2017-07-10T13:30:47.211Z,25.47
2017-07-10T13:33:16.575Z,22.47
2017-07-10T13:35:45.799Z,23.57
2017-07-10T13:38:14.281Z,21.40
2017-07-10T13:40:42.695Z,21.50
2017-07-10T13:43:11.744Z,21.07
2017-07-10T13:45:40.379Z,21.70
2017-07-10T13:48:09.797Z,21.20
2017-07-10T13:50:38.213Z,17.80
2017-07-10T13:53:06.628Z,19.40
2017-07-10T13:55:34.992Z,19.53
2017-07-10T13:58:03.670Z,22.20
2017-07-10T14:00:32.223Z,23.13
2017-07-10T14:03:00.556Z,25.60
2017-07-10T14:05:28.886Z,23.07
2017-07-10T14:07:57.291Z,24.70
2017-07-10T14:10:25.922Z,21.13
2017-07-10T14:12:54.329Z,23.30
2017-07-10T14:15:22.622Z,23.63
2017-07-10T14:17:50.942Z,23.83
2017-07-10T14:20:19.670Z,23.83
2017-07-10T14:22:48.279Z,21.67
2017-07-10T14:25:17.346Z,20.27
2017-07-10T14:27:45.635Z,21.20
2017-07-10T14:30:14.009Z,15.43
2017-07-10T14:32:42.325Z,17.33
2017-07-10T14:35:12.559Z,15.60
2017-07-10T14:37:41.663Z,20.50
2017-07-10T14:40:09.950Z,22.10
2017-07-10T14:42:42.802Z,19.60
2017-07-10T14:45:11.091Z,20.80
2017-07-10T14:47:39.802Z,22.77
2017-07-10T14:50:09.409Z,18.53
2017-07-10T14:52:38.527Z,16.70
2017-07-10T14:55:06.862Z,16.00
2017-07-10T14:57:35.159Z,17.30
2017-07-10T15:00:03.725Z,17.63
2017-07-10T15:02:32.007Z,18.43
2017-07-10T15:05:00.334Z,17.53
2017-07-10T15:07:29.417Z,17.77
2017-07-10T15:09:57.727Z,15.53
2017-07-10T15:12:26.280Z,17.97
2017-07-10T15:14:55.381Z,18.07
2017-07-10T15:17:23.777Z,18.60
2017-07-10T15:19:52.085Z,16.57
2017-07-10T15:22:21.088Z,17.20
2017-07-10T15:24:49.737Z,17.20
2017-07-10T15:27:18.720Z,18.67
2017-07-10T15:29:47.048Z,16.13
2017-07-10T15:32:15.371Z,17.07
2017-07-10T15:34:44.598Z,18.70
2017-07-10T15:37:13.270Z,18.40
2017-07-10T15:39:41.592Z,22.67
2017-07-10T15:42:10.668Z,17.80
2017-07-10T15:44:39.046Z,20.57
2017-07-10T15:47:07.343Z,19.07
2017-07-10T15:49:36.026Z,21.90
2017-07-10T15:52:04.300Z,19.80
2017-07-10T15:54:33.266Z,20.30
2017-07-10T15:57:02.295Z,19.60
2017-07-10T15:59:30.568Z,19.50
2017-07-10T16:01:59.149Z,19.80
2017-07-10T16:04:27.551Z,18.43
2017-07-10T16:06:56.240Z,18.13
2017-07-10T16:09:24.547Z,19.67
2017-07-10T16:11:53.079Z,17.50
2017-07-10T16:14:22.188Z,19.40
2017-07-10T16:16:50.567Z,18.90
2017-07-10T16:19:18.883Z,18.90
2017-07-10T16:21:47.153Z,15.83
2017-07-10T16:24:15.426Z,18.53
2017-07-10T16:26:44.355Z,17.07
2017-07-10T16:29:13.518Z,19.60
2017-07-10T16:31:41.839Z,22.10
2017-07-10T16:34:11.005Z,20.77
2017-07-10T16:36:39.335Z,19.20
2017-07-10T16:39:08.701Z,20.50
2017-07-10T16:41:37.710Z,20.53
2017-07-10T16:44:06.778Z,19.27
2017-07-10T16:46:35.076Z,19.10
2017-07-10T16:49:03.360Z,18.90
2017-07-10T16:51:32.381Z,20.80
2017-07-10T16:54:01.443Z,19.03
2017-07-10T16:56:29.750Z,18.50
2017-07-10T16:58:58.051Z,19.40
2017-07-10T17:01:26.399Z,18.95
2017-07-10T17:03:55.603Z,15.93
2017-07-10T17:06:23.896Z,16.50
2017-07-10T17:08:52.260Z,18.33
2017-07-10T17:11:20.671Z,19.73
2017-07-10T17:13:49.730Z,19.30
2017-07-10T17:16:18.315Z,17.00
2017-07-10T17:18:46.619Z,19.10
2017-07-10T17:21:15.628Z,17.30
2017-07-10T17:23:44.207Z,18.27
2017-07-10T17:26:12.701Z,16.97
2017-07-10T17:28:41.290Z,19.27
2017-07-10T17:31:09.801Z,18.20
2017-07-10T17:33:39.271Z,18.30
2017-07-10T17:36:07.577Z,16.83
2017-07-10T17:38:35.900Z,19.47
2017-07-10T17:41:04.540Z,18.63
2017-07-10T17:43:33.325Z,18.13
2017-07-10T17:46:02.357Z,20.40
2017-07-10T17:48:31.540Z,20.10
2017-07-10T17:51:01.262Z,19.60
2017-07-10T17:53:30.012Z,18.83
2017-07-10T17:55:58.422Z,16.40
2017-07-10T17:58:27.766Z,16.80
2017-07-10T18:00:56.830Z,17.80
2017-07-10T18:03:25.194Z,18.20
2017-07-10T18:05:53.792Z,19.00
2017-07-10T18:08:22.070Z,19.90
2017-07-10T18:10:50.345Z,19.70
2017-07-10T18:13:18.652Z,21.13
2017-07-10T18:15:48.882Z,20.10
2017-07-10T18:18:18.970Z,20.27
2017-07-10T18:20:48.099Z,17.70
2017-07-10T18:23:17.267Z,17.70
2017-07-10T18:25:45.664Z,19.30
2017-07-10T18:28:14.860Z,17.37
2017-07-10T18:30:43.442Z,19.00
2017-07-10T18:33:11.843Z,22.00
2017-07-10T18:35:40.726Z,19.20
2017-07-10T18:38:09.150Z,19.50
2017-07-10T18:40:38.013Z,20.10
2017-07-10T18:43:06.611Z,21.80
2017-07-10T18:45:36.036Z,21.47
2017-07-10T18:48:04.381Z,23.53
2017-07-10T18:50:32.666Z,22.83
2017-07-10T18:53:01.079Z,22.37
2017-07-10T18:55:29.770Z,23.93
2017-07-10T18:57:58.043Z,22.30
2017-07-10T19:00:26.552Z,21.67
2017-07-10T19:02:55.620Z,22.03
2017-07-10T19:05:23.933Z,22.30
2017-07-10T19:07:52.578Z,22.87
2017-07-10T19:10:21.729Z,22.57
2017-07-10T19:12:50.789Z,23.77
2017-07-10T19:15:19.788Z,22.23
2017-07-10T19:17:49.136Z,22.23
2017-07-10T19:20:17.755Z,25.40
2017-07-10T19:22:46.085Z,25.20
2017-07-10T19:25:14.451Z,24.83
2017-07-10T19:27:42.821Z,26.87
2017-07-10T19:30:11.132Z,25.87
2017-07-10T19:32:40.439Z,26.47
2017-07-10T19:35:08.996Z,23.73
2017-07-10T19:37:37.383Z,28.33
2017-07-10T19:40:05.790Z,29.40
2017-07-10T19:42:34.541Z,34.17
2017-07-10T19:45:03.344Z,29.93
2017-07-10T19:47:31.746Z,27.50
2017-07-10T19:50:00.663Z,25.63
2017-07-10T19:52:29.838Z,27.20
2017-07-10T19:54:58.645Z,30.47
2017-07-10T19:57:27.225Z,26.60
2017-07-10T19:59:55.543Z,27.07
2017-07-10T20:02:24.599Z,26.63
2017-07-10T20:04:53.693Z,29.70
2017-07-10T20:07:21.988Z,28.90
2017-07-10T20:09:50.564Z,28.03
2017-07-10T20:12:19.723Z,30.03
2017-07-10T20:14:48.062Z,30.07
2017-07-10T20:17:16.364Z,29.10
2017-07-10T20:19:45.439Z,30.80
2017-07-10T20:22:14.564Z,29.80
2017-07-10T20:24:43.253Z,28.37
2017-07-10T20:27:12.356Z,30.60
2017-07-10T20:29:40.718Z,31.77
2017-07-10T20:32:09.682Z,33.57
2017-07-10T20:34:38.282Z,33.37
2017-07-10T20:37:06.971Z,36.00
2017-07-10T20:39:35.268Z,36.37
2017-07-10T20:42:03.579Z,35.47
2017-07-10T20:44:31.937Z,36.27
2017-07-10T20:47:00.508Z,40.93
2017-07-10T20:49:28.791Z,41.97
2017-07-10T20:51:57.677Z,37.53
2017-07-10T20:54:26.544Z,35.63
2017-07-10T20:56:55.480Z,34.43
2017-07-10T20:59:24.085Z,33.10
2017-07-10T21:01:52.397Z,34.07
2017-07-10T21:04:21.455Z,34.27
2017-07-10T21:06:49.831Z,31.57
2017-07-10T21:09:18.129Z,31.27
2017-07-10T21:11:46.839Z,31.53
2017-07-10T21:14:15.882Z,30.60
2017-07-10T21:16:44.179Z,28.30
2017-07-10T21:19:12.587Z,33.67
2017-07-10T21:21:41.372Z,31.57
2017-07-10T21:24:10.455Z,31.93
2017-07-10T21:26:38.948Z,32.73
2017-07-10T21:29:07.230Z,34.90
2017-07-10T21:31:35.536Z,27.10
2017-07-10T21:34:04.513Z,16.63
2017-07-10T21:36:33.100Z,14.87
2017-07-10T21:39:01.921Z,14.30
2017-07-10T21:41:30.268Z,14.27
2017-07-10T21:43:58.578Z,12.97
2017-07-10T21:46:26.948Z,14.77
2017-07-10T21:48:55.545Z,15.00
2017-07-10T21:51:24.523Z,14.90
2017-07-10T21:53:52.812Z,15.73
2017-07-10T21:56:21.198Z,14.70
2017-07-10T21:58:50.639Z,18.10
2017-07-10T22:01:20.011Z,19.80
2017-07-10T22:03:48.318Z,20.30
2017-07-10T22:06:18.346Z,20.17
2017-07-10T22:08:47.113Z,19.40
2017-07-10T22:11:15.506Z,19.77
2017-07-10T22:13:44.103Z,20.33
2017-07-10T22:16:13.040Z,23.50
2017-07-10T22:18:41.335Z,22.83
2017-07-10T22:21:10.154Z,22.80
2017-07-10T22:23:39.670Z,23.27
2017-07-10T22:26:09.687Z,24.67
2017-07-10T22:28:39.298Z,23.60
2017-07-10T22:31:09.522Z,22.57
2017-07-10T22:33:39.059Z,22.37
2017-07-10T22:36:08.934Z,21.43
2017-07-10T22:38:38.784Z,20.27
2017-07-10T22:41:08.319Z,21.83
2017-07-10T22:43:38.667Z,17.37
2017-07-10T22:46:08.226Z,18.17
2017-07-10T22:48:36.385Z,17.60
2017-07-10T22:51:04.929Z,18.50
2017-07-10T22:53:35.215Z,17.23
2017-07-10T22:56:04.285Z,18.00
2017-07-10T22:58:33.740Z,20.00
2017-07-10T23:01:04.295Z,21.10
2017-07-10T23:03:34.181Z,24.30
2017-07-10T23:06:04.436Z,25.37
2017-07-10T23:08:34.827Z,23.97
2017-07-10T23:11:04.320Z,21.80
2017-07-10T23:13:33.853Z,20.77
2017-07-10T23:16:03.377Z,19.40
2017-07-10T23:18:32.885Z,19.33
2017-07-10T23:21:03.305Z,20.30
2017-07-10T23:23:32.818Z,21.80
2017-07-10T23:26:02.402Z,20.03
2017-07-10T23:28:32.198Z,18.70
2017-07-10T23:31:01.235Z,17.47
2017-07-10T23:33:30.160Z,18.73
2017-07-10T23:35:58.696Z,17.90
2017-07-10T23:38:27.017Z,17.23
2017-07-10T23:40:55.361Z,17.53
2017-07-10T23:43:23.968Z,18.83
2017-07-10T23:45:52.321Z,16.67
2017-07-10T23:48:20.998Z,17.43
2017-07-10T23:50:49.632Z,16.90
2017-07-10T23:53:17.912Z,17.77
2017-07-10T23:55:46.601Z,19.20
2017-07-10T23:58:15.167Z,17.17
